Time;durP1;ratioP1;P1;durP2;ratioP2;P2;SDS_P1;SDS_P2;PMS_P1;PMS_P2;Temp;Humidity;BMP_temperature;BMP_pressure;BME280_temperature;BME280_humidity;BME280_pressure;Samples;Min_cycle;Max_cycle;Signal;HPM_P1;HPM_P2
2023/02/14 00:00:54;;;;;;;19.27;9.90;;;5.50;99.90;;;;;;5069949;28;20033;-79
2023/02/14 00:03:20;;;;;;;15.63;9.25;;;5.40;99.90;;;;;;5070368;28;20047;-77
2023/02/14 00:05:46;;;;;;;19.77;10.18;;;5.30;99.90;;;;;;5070720;28;20064;-77
2023/02/14 00:08:12;;;;;;;20.65;10.82;;;5.30;99.90;;;;;;5070225;28;20024;-75
2023/02/14 00:10:37;;;;;;;19.67;10.30;;;5.30;99.90;;;;;;5069895;28;20099;-76
2023/02/14 00:13:03;;;;;;;20.55;9.73;;;5.40;99.90;;;;;;5074339;28;20435;-76
2023/02/14 00:15:29;;;;;;;17.60;10.15;;;5.30;99.90;;;;;;5073492;28;20037;-76
2023/02/14 00:17:58;;;;;;;19.77;9.73;;;5.30;99.90;;;;;;5073363;28;20047;-76
2023/02/14 00:20:24;;;;;;;18.13;9.60;;;5.30;99.90;;;;;;5073297;28;20033;-76
2023/02/14 00:22:51;;;;;;;17.63;9.45;;;5.30;99.90;;;;;;5073523;28;20109;-75
2023/02/14 00:25:17;;;;;;;22.17;10.20;;;5.20;99.90;;;;;;5074464;28;20024;-77
2023/02/14 00:27:42;;;;;;;20.65;10.90;;;4.90;99.90;;;;;;5072103;28;20052;-78
2023/02/14 00:30:09;;;;;;;20.05;10.73;;;5.30;99.90;;;;;;5073637;28;20327;-77
2023/02/14 00:32:38;;;;;;;19.02;10.48;;;5.30;99.90;;;;;;5073626;28;20052;-78
2023/02/14 00:35:05;;;;;;;16.88;9.45;;;5.40;99.90;;;;;;5071999;28;20089;-79
2023/02/14 00:37:31;;;;;;;19.67;10.00;;;5.30;99.90;;;;;;5072430;28;20093;-79
2023/02/14 00:39:56;;;;;;;22.55;10.70;;;5.40;99.90;;;;;;5072029;28;20033;-79
2023/02/14 00:42:22;;;;;;;15.55;8.45;;;5.30;99.90;;;;;;5072108;28;20025;-78
2023/02/14 00:44:47;;;;;;;20.55;9.43;;;5.20;99.90;;;;;;5071981;28;20035;-78
2023/02/14 00:47:13;;;;;;;19.25;10.02;;;5.20;99.90;;;;;;5071936;28;20116;-79
2023/02/14 00:49:39;;;;;;;19.48;10.02;;;5.10;99.90;;;;;;5071688;28;20079;-77
2023/02/14 00:52:04;;;;;;;18.10;9.43;;;5.10;99.90;;;;;;5072148;28;20481;-78
2023/02/14 00:54:30;;;;;;;19.92;9.50;;;5.00;99.90;;;;;;5072947;28;20056;-79
2023/02/14 00:56:55;;;;;;;17.25;10.43;;;5.10;99.90;;;;;;5072842;28;20032;-79
2023/02/14 00:59:21;;;;;;;24.45;12.70;;;5.10;99.90;;;;;;5072951;28;20055;-79
2023/02/14 01:01:47;;;;;;;21.65;11.57;;;5.10;99.90;;;;;;5072680;28;20036;-79
2023/02/14 01:04:12;;;;;;;19.05;10.80;;;5.10;99.90;;;;;;5073012;28;20016;-79
2023/02/14 01:06:38;;;;;;;22.30;11.18;;;5.30;99.90;;;;;;5072698;28;20108;-78
2023/02/14 01:09:04;;;;;;;21.30;11.02;;;5.10;99.90;;;;;;5072590;28;20097;-78
2023/02/14 01:11:29;;;;;;;19.60;10.60;;;5.10;99.90;;;;;;5072536;28;20037;-79
2023/02/14 01:13:56;;;;;;;27.05;12.23;;;5.10;99.90;;;;;;5072459;28;20089;-78
2023/02/14 01:16:23;;;;;;;27.83;12.90;;;5.20;99.90;;;;;;5072740;28;20104;-79
2023/02/14 01:18:50;;;;;;;26.33;13.45;;;5.30;99.90;;;;;;5072408;28;20043;-78
2023/02/14 01:21:20;;;;;;;24.70;12.88;;;5.30;99.90;;;;;;5071053;28;20473;-78
2023/02/14 01:23:47;;;;;;;26.33;12.88;;;5.20;99.90;;;;;;5071435;28;20033;-79
2023/02/14 01:26:14;;;;;;;27.35;12.90;;;5.30;99.90;;;;;;5071066;28;20052;-78
2023/02/14 01:28:40;;;;;;;24.80;11.95;;;5.30;99.90;;;;;;5072163;28;20045;-78
2023/02/14 01:31:10;;;;;;;25.08;12.43;;;5.20;99.90;;;;;;5072612;28;20036;-78
2023/02/14 01:33:37;;;;;;;23.42;12.20;;;5.20;99.90;;;;;;5071943;28;20028;-80
2023/02/14 01:36:03;;;;;;;23.30;11.00;;;5.20;99.90;;;;;;5071769;28;20114;-80
2023/02/14 01:38:29;;;;;;;24.40;12.52;;;5.10;99.90;;;;;;5071720;28;20410;-80
2023/02/14 01:40:55;;;;;;;26.73;12.90;;;5.20;99.90;;;;;;5071606;28;20415;-79
2023/02/14 01:43:21;;;;;;;29.80;14.18;;;5.20;99.90;;;;;;5072435;28;20066;-79
2023/02/14 01:45:47;;;;;;;31.65;14.68;;;5.20;99.90;;;;;;5071805;28;20398;-79
2023/02/14 01:48:14;;;;;;;29.00;15.02;;;5.30;99.90;;;;;;5071678;28;20020;-78
2023/02/14 01:50:43;;;;;;;32.28;14.75;;;5.50;99.90;;;;;;5071635;28;20041;-79
2023/02/14 01:53:18;;;;;;;32.70;15.25;;;5.30;99.90;;;;;;5070384;28;20060;-78
2023/02/14 01:55:49;;;;;;;27.88;13.63;;;5.30;99.90;;;;;;5070362;28;20031;-78
2023/02/14 01:58:22;;;;;;;29.50;14.25;;;5.40;99.90;;;;;;5071872;28;20017;-79
2023/02/14 02:00:57;;;;;;;33.03;14.73;;;5.40;99.90;;;;;;5071436;28;20052;-79
2023/02/14 02:03:36;;;;;;;31.48;14.70;;;5.40;99.90;;;;;;5071438;28;20032;-79
2023/02/14 02:06:14;;;;;;;25.88;13.43;;;5.30;99.90;;;;;;5071910;28;20115;-78
2023/02/14 02:09:09;;;;;;;31.35;14.35;;;5.30;99.90;;;;;;5071674;28;20040;-78
2023/02/14 02:11:36;;;;;;;31.15;14.70;;;5.40;99.90;;;;;;5067129;28;20043;-77
2023/02/14 02:14:03;;;;;;;32.42;14.80;;;5.40;99.90;;;;;;5071346;28;20035;-79
2023/02/14 02:16:56;;;;;;;28.88;14.32;;;5.30;99.90;;;;;;5071433;28;20100;-78
2023/02/14 02:19:59;;;;;;;27.85;14.20;;;5.40;99.90;;;;;;5070247;28;20505;-78
2023/02/14 02:22:25;;;;;;;31.23;14.60;;;5.40;99.90;;;;;;5071361;28;20032;-78
2023/02/14 02:25:15;;;;;;;35.95;15.35;;;5.40;99.90;;;;;;5071906;28;20102;-78
2023/02/14 02:28:02;;;;;;;31.48;15.40;;;5.40;99.90;;;;;;5071300;28;20052;-79
2023/02/14 02:30:43;;;;;;;29.15;15.00;;;5.30;99.90;;;;;;5071630;28;20100;-79
2023/02/14 02:33:20;;;;;;;32.20;14.70;;;5.30;99.90;;;;;;5070542;28;20090;-78
2023/02/14 02:35:53;;;;;;;28.17;14.45;;;5.30;99.90;;;;;;5079167;28;20039;-79
2023/02/14 02:38:27;;;;;;;34.40;13.90;;;5.30;99.90;;;;;;5094387;28;20039;-77
2023/02/14 02:41:34;;;;;;;31.35;14.65;;;5.40;99.90;;;;;;5094980;28;20055;-77
2023/02/14 02:44:15;;;;;;;33.08;14.38;;;5.30;99.90;;;;;;5094791;28;20028;-77
2023/02/14 02:47:05;;;;;;;30.88;13.65;;;5.20;99.90;;;;;;5097322;28;20020;-78
2023/02/14 02:53:07;;;;;;;27.63;12.10;;;5.10;99.90;;;;;;5099315;28;20435;-78
2023/02/14 02:59:17;;;;;;;27.10;13.07;;;4.90;99.90;;;;;;5090918;28;20419;-77
2023/02/14 03:01:47;;;;;;;31.92;13.10;;;5.00;99.90;;;;;;5098517;28;20034;-77
2023/02/14 03:06:59;;;;;;;27.83;13.82;;;4.70;99.90;;;;;;5091922;28;20100;-79
2023/02/14 03:09:25;;;;;;;22.40;12.18;;;4.80;99.90;;;;;;5091747;28;20083;-78
2023/02/14 03:12:03;;;;;;;31.38;14.68;;;4.70;99.90;;;;;;5089789;28;20035;-78
2023/02/14 03:14:39;;;;;;;29.35;14.70;;;4.70;99.90;;;;;;5091014;28;20036;-77
2023/02/14 03:17:32;;;;;;;29.40;14.32;;;4.60;99.90;;;;;;5089932;28;20378;-77
2023/02/14 03:20:26;;;;;;;32.08;13.55;;;4.60;99.90;;;;;;5090765;28;20028;-79
2023/02/14 03:23:11;;;;;;;27.65;13.38;;;4.60;99.90;;;;;;5090518;28;20058;-77
2023/02/14 03:25:57;;;;;;;26.70;13.48;;;4.50;99.90;;;;;;5090667;28;20097;-77
2023/02/14 03:28:54;;;;;;;26.10;13.13;;;4.60;99.90;;;;;;5090828;28;20040;-78
2023/02/14 03:31:43;;;;;;;31.92;13.73;;;4.60;99.90;;;;;;5089836;28;20401;-77
2023/02/14 03:34:15;;;;;;;28.20;14.40;;;4.60;99.90;;;;;;5079692;28;20043;-78
2023/02/14 03:36:57;;;;;;;32.05;14.10;;;4.70;99.90;;;;;;5090354;28;20100;-78
2023/02/14 03:39:41;;;;;;;34.80;15.48;;;4.70;99.90;;;;;;5089610;28;20047;-76
2023/02/14 03:42:17;;;;;;;30.05;14.30;;;4.60;99.90;;;;;;5089507;28;20033;-78
2023/02/14 03:44:46;;;;;;;29.58;14.38;;;4.60;99.90;;;;;;5090245;28;20036;-77
2023/02/14 03:47:19;;;;;;;34.40;14.93;;;4.60;99.90;;;;;;5092761;28;20419;-78
2023/02/14 03:49:54;;;;;;;38.03;14.45;;;4.70;99.90;;;;;;5094206;28;20486;-77
2023/02/14 03:52:21;;;;;;;29.58;14.18;;;4.60;99.90;;;;;;5094645;28;20488;-77
2023/02/14 03:54:51;;;;;;;31.67;14.20;;;4.60;99.90;;;;;;5093219;28;20032;-79
2023/02/14 03:57:46;;;;;;;35.85;15.32;;;4.60;99.90;;;;;;5094161;28;20024;-77
2023/02/14 04:00:13;;;;;;;35.13;15.38;;;4.70;99.90;;;;;;5080244;28;20119;-79
2023/02/14 04:02:45;;;;;;;32.05;14.75;;;4.70;99.90;;;;;;5094041;28;20115;-79
2023/02/14 04:05:24;;;;;;;32.08;15.02;;;4.60;99.90;;;;;;5094118;28;20093;-79
2023/02/14 04:07:56;;;;;;;31.92;14.15;;;4.70;99.90;;;;;;5092893;28;20042;-77
2023/02/14 04:10:23;;;;;;;33.63;14.57;;;4.60;99.90;;;;;;5094163;28;20016;-78
2023/02/14 04:12:49;;;;;;;32.60;15.32;;;4.60;99.90;;;;;;5092802;28;20033;-77
2023/02/14 04:15:15;;;;;;;31.92;14.45;;;4.60;99.90;;;;;;5093485;28;20055;-78
2023/02/14 04:20:25;;;;;;;31.27;13.50;;;4.70;99.90;;;;;;5093817;28;20035;-77
2023/02/14 04:22:51;;;;;;;31.20;13.77;;;4.70;99.90;;;;;;5093503;28;20027;-78
2023/02/14 04:25:18;;;;;;;37.72;16.88;;;4.60;99.90;;;;;;5094135;28;20024;-78
2023/02/14 04:27:43;;;;;;;32.83;14.02;;;4.60;99.90;;;;;;5093422;28;20059;-77
2023/02/14 04:30:11;;;;;;;27.17;11.63;;;4.60;99.90;;;;;;5093549;28;20036;-80
2023/02/14 04:32:37;;;;;;;26.50;12.00;;;4.50;99.90;;;;;;5092650;28;20032;-81
2023/02/14 04:35:04;;;;;;;24.10;11.52;;;4.40;99.90;;;;;;5093293;28;20047;-79
2023/02/14 04:37:29;;;;;;;20.58;9.60;;;4.40;99.90;;;;;;5093637;28;20020;-79
2023/02/14 04:39:55;;;;;;;23.92;10.30;;;4.50;99.90;;;;;;5092068;28;20036;-79
2023/02/14 04:42:21;;;;;;;22.10;10.50;;;4.50;99.90;;;;;;5093133;28;20043;-79
2023/02/14 04:44:46;;;;;;;23.30;10.98;;;4.40;99.90;;;;;;5093047;28;20086;-79
2023/02/14 04:47:12;;;;;;;25.83;12.20;;;4.40;99.90;;;;;;5092023;28;20052;-80
2023/02/14 04:49:37;;;;;;;20.70;9.75;;;4.40;99.90;;;;;;5093123;28;20116;-77
2023/02/14 04:52:04;;;;;;;19.55;9.35;;;4.50;99.90;;;;;;5092441;28;20024;-79
2023/02/14 04:54:29;;;;;;;17.67;9.57;;;4.40;99.90;;;;;;5093157;28;20039;-78
2023/02/14 04:56:55;;;;;;;18.23;9.63;;;4.30;99.90;;;;;;5093193;28;20093;-79
2023/02/14 04:59:21;;;;;;;18.98;8.88;;;4.30;99.90;;;;;;5090840;28;20040;-79
2023/02/14 05:01:47;;;;;;;19.15;8.77;;;4.10;99.90;;;;;;5092720;28;20024;-79
2023/02/14 05:04:13;;;;;;;19.63;9.43;;;4.20;99.90;;;;;;5092357;28;20030;-79
2023/02/14 05:06:38;;;;;;;15.80;8.60;;;4.10;99.90;;;;;;5092954;28;20119;-79
2023/02/14 05:09:04;;;;;;;16.38;8.82;;;4.10;99.90;;;;;;5091600;28;20028;-78
2023/02/14 05:11:30;;;;;;;18.05;9.60;;;4.20;99.90;;;;;;5091673;28;20032;-78
2023/02/14 05:13:56;;;;;;;15.27;8.13;;;4.10;99.90;;;;;;5091446;28;20073;-80
2023/02/14 05:16:22;;;;;;;17.13;8.32;;;4.10;99.90;;;;;;5092834;28;20104;-79
2023/02/14 05:18:48;;;;;;;19.58;8.98;;;4.10;99.90;;;;;;5091249;28;20062;-78
2023/02/14 05:21:13;;;;;;;17.77;9.40;;;4.00;99.90;;;;;;5092301;28;20079;-79
2023/02/14 05:23:39;;;;;;;17.30;9.30;;;4.00;99.90;;;;;;5091271;28;20051;-78
2023/02/14 05:26:05;;;;;;;19.05;8.95;;;4.00;99.90;;;;;;5091245;28;20043;-78
2023/02/14 05:28:31;;;;;;;14.48;8.18;;;4.00;99.90;;;;;;5092395;28;20048;-78
2023/02/14 05:30:57;;;;;;;15.88;8.50;;;4.10;99.90;;;;;;5092120;28;20481;-79
2023/02/14 05:33:24;;;;;;;14.40;7.72;;;3.90;99.90;;;;;;5091389;28;20024;-78
2023/02/14 05:35:49;;;;;;;16.02;8.77;;;3.90;99.90;;;;;;5091965;28;20138;-78
2023/02/14 05:38:15;;;;;;;17.48;8.85;;;3.90;99.90;;;;;;5092053;28;20036;-79
2023/02/14 05:40:41;;;;;;;16.55;8.75;;;3.90;99.90;;;;;;5091836;28;20110;-79
2023/02/14 05:43:07;;;;;;;13.75;7.85;;;3.90;99.90;;;;;;5092514;28;20016;-78
2023/02/14 05:45:33;;;;;;;16.20;8.50;;;3.90;99.90;;;;;;5091943;28;20038;-78
2023/02/14 05:47:59;;;;;;;17.98;9.05;;;3.90;99.90;;;;;;5091797;28;20055;-77
2023/02/14 05:50:25;;;;;;;18.25;8.30;;;3.90;99.90;;;;;;5091771;28;20067;-77
2023/02/14 05:52:50;;;;;;;17.02;8.30;;;3.80;99.90;;;;;;5090857;28;20024;-78
2023/02/14 05:55:16;;;;;;;15.88;8.43;;;3.90;99.90;;;;;;5092707;28;20510;-78
2023/02/14 05:57:42;;;;;;;18.02;9.00;;;3.90;99.90;;;;;;5091915;28;20024;-78
2023/02/14 06:00:09;;;;;;;17.10;8.15;;;3.90;99.90;;;;;;5090729;28;20036;-79
2023/02/14 06:02:35;;;;;;;19.98;7.72;;;3.90;99.90;;;;;;5091738;28;20111;-77
2023/02/14 06:05:00;;;;;;;15.27;8.68;;;3.90;99.90;;;;;;5090421;28;20442;-77
2023/02/14 06:07:26;;;;;;;16.05;8.60;;;3.90;99.90;;;;;;5090934;28;20362;-79
2023/02/14 06:09:52;;;;;;;16.80;8.60;;;3.90;99.90;;;;;;5091058;28;20030;-78
2023/02/14 06:12:17;;;;;;;14.13;8.02;;;3.90;99.90;;;;;;5090362;28;20400;-78
2023/02/14 06:14:43;;;;;;;17.35;8.63;;;4.00;99.90;;;;;;5091217;28;20446;-79
2023/02/14 06:17:09;;;;;;;16.35;8.77;;;4.00;99.90;;;;;;5091349;28;20425;-78
2023/02/14 06:19:35;;;;;;;16.65;8.80;;;3.90;99.90;;;;;;5091925;28;20095;-80
2023/02/14 06:22:02;;;;;;;16.85;8.70;;;3.90;99.90;;;;;;5091532;28;20109;-78
2023/02/14 06:24:27;;;;;;;15.95;8.93;;;3.90;99.90;;;;;;5091276;28;20032;-78
2023/02/14 06:26:53;;;;;;;16.55;8.95;;;3.80;99.90;;;;;;5090824;28;20396;-78
2023/02/14 06:29:18;;;;;;;12.55;7.13;;;3.90;99.90;;;;;;5090429;28;20074;-78
2023/02/14 06:31:44;;;;;;;17.23;8.90;;;3.90;99.90;;;;;;5090033;28;20342;-78
2023/02/14 06:34:10;;;;;;;14.77;8.43;;;3.80;99.90;;;;;;5090440;28;20045;-78
2023/02/14 06:36:36;;;;;;;13.68;7.93;;;3.80;99.90;;;;;;5090184;28;20078;-76
2023/02/14 06:39:02;;;;;;;16.88;8.13;;;3.80;99.90;;;;;;5091027;28;20396;-77
2023/02/14 06:41:27;;;;;;;15.05;7.93;;;3.80;99.90;;;;;;5091038;28;20039;-79
2023/02/14 06:43:53;;;;;;;14.82;8.13;;;3.90;99.90;;;;;;5091380;28;20020;-77
2023/02/14 06:46:19;;;;;;;14.32;7.82;;;3.80;99.90;;;;;;5091490;28;20378;-78
2023/02/14 06:48:45;;;;;;;16.15;7.63;;;3.90;99.90;;;;;;5091376;28;20032;-78
2023/02/14 06:51:11;;;;;;;17.63;8.85;;;3.90;99.90;;;;;;5089918;28;20106;-78
2023/02/14 06:53:37;;;;;;;15.88;8.27;;;4.00;99.90;;;;;;5090045;28;20027;-78
2023/02/14 06:56:04;;;;;;;17.15;8.75;;;3.90;99.90;;;;;;5090952;28;20335;-78
2023/02/14 06:58:30;;;;;;;16.70;8.50;;;3.90;99.90;;;;;;5085659;28;20028;-77
2023/02/14 07:00:56;;;;;;;20.30;8.95;;;3.90;99.90;;;;;;5051259;28;20439;-76
2023/02/14 07:03:22;;;;;;;16.30;8.45;;;3.90;99.90;;;;;;5050426;28;20048;-75
2023/02/14 07:05:48;;;;;;;16.52;8.73;;;3.90;99.90;;;;;;5050509;28;20116;-77
2023/02/14 07:08:13;;;;;;;16.23;8.55;;;3.90;99.90;;;;;;5050489;28;20113;-74
2023/02/14 07:10:39;;;;;;;18.92;8.65;;;3.90;99.90;;;;;;5050401;28;20100;-74
2023/02/14 07:13:05;;;;;;;14.38;7.85;;;4.00;99.90;;;;;;5050887;28;20021;-75
2023/02/14 07:15:31;;;;;;;16.08;8.43;;;4.00;99.90;;;;;;5050211;28;20037;-76
2023/02/14 07:17:57;;;;;;;17.15;8.75;;;4.00;99.90;;;;;;5051293;28;20477;-75
2023/02/14 07:20:23;;;;;;;15.80;9.13;;;4.10;99.90;;;;;;5050443;28;20040;-79
2023/02/14 07:22:49;;;;;;;19.30;8.80;;;4.10;99.90;;;;;;5053861;28;20086;-75
2023/02/14 07:25:15;;;;;;;17.45;8.13;;;4.20;99.90;;;;;;5053965;28;20032;-75
2023/02/14 07:27:42;;;;;;;19.27;9.15;;;4.20;99.90;;;;;;5053119;28;20482;-75
2023/02/14 07:30:09;;;;;;;17.53;8.60;;;4.20;99.90;;;;;;5054448;28;20083;-75
2023/02/14 07:32:37;;;;;;;15.90;8.38;;;4.10;99.90;;;;;;5054172;28;20637;-74
2023/02/14 07:35:03;;;;;;;16.65;9.18;;;4.20;99.90;;;;;;5053088;28;20044;-76
2023/02/14 07:37:30;;;;;;;14.77;8.13;;;4.20;99.90;;;;;;5054702;28;20435;-74
2023/02/14 07:39:56;;;;;;;23.38;11.48;;;4.30;99.90;;;;;;5054272;28;20416;-73
2023/02/14 07:42:21;;;;;;;19.30;9.70;;;4.30;99.90;;;;;;5054038;28;20025;-74
2023/02/14 07:44:47;;;;;;;15.55;8.07;;;4.30;99.90;;;;;;5054080;28;20036;-74
2023/02/14 07:47:13;;;;;;;16.42;8.85;;;4.30;99.90;;;;;;5054157;28;20418;-75
2023/02/14 07:49:38;;;;;;;17.55;9.13;;;4.30;99.90;;;;;;5052900;28;20040;-75
2023/02/14 07:52:04;;;;;;;19.77;10.15;;;4.40;99.90;;;;;;5053045;28;20028;-74
2023/02/14 07:54:30;;;;;;;21.42;10.75;;;4.40;99.90;;;;;;5054326;28;20470;-75
2023/02/14 07:56:55;;;;;;;15.63;8.93;;;4.50;99.90;;;;;;5054035;28;20537;-73
2023/02/14 07:59:21;;;;;;;14.10;7.72;;;4.50;99.90;;;;;;5053617;28;20041;-76
2023/02/14 08:01:47;;;;;;;17.48;9.00;;;4.60;99.90;;;;;;5053722;28;20025;-74
2023/02/14 08:04:13;;;;;;;18.83;8.05;;;4.50;99.90;;;;;;5054110;28;20013;-76
2023/02/14 08:06:40;;;;;;;18.88;8.75;;;4.60;99.90;;;;;;5053929;28;20102;-74
2023/02/14 08:09:06;;;;;;;17.17;9.20;;;4.60;99.90;;;;;;5052348;28;20033;-73
2023/02/14 08:14:16;;;;;;;15.10;9.10;;;4.80;99.90;;;;;;5053930;28;20067;-73
2023/02/14 08:16:42;;;;;;;18.20;9.40;;;4.80;99.90;;;;;;5052434;28;20067;-73
2023/02/14 08:19:08;;;;;;;19.83;9.13;;;4.90;99.90;;;;;;5052767;28;20025;-75
2023/02/14 08:21:33;;;;;;;16.77;9.68;;;5.00;99.90;;;;;;5053312;28;20112;-75
2023/02/14 08:23:59;;;;;;;16.50;9.10;;;5.10;99.90;;;;;;5052169;28;20460;-75
2023/02/14 08:26:25;;;;;;;19.38;9.30;;;5.20;99.90;;;;;;5052375;28;20029;-75
2023/02/14 08:28:51;;;;;;;20.83;9.85;;;5.30;99.90;;;;;;5053177;28;20387;-74
2023/02/14 08:31:25;;;;;;;17.75;9.30;;;5.30;99.90;;;;;;5053635;28;20103;-76
2023/02/14 08:33:51;;;;;;;20.55;9.82;;;5.40;99.90;;;;;;5053114;28;20402;-74
2023/02/14 08:36:17;;;;;;;20.33;10.57;;;5.50;99.90;;;;;;5053054;28;20037;-74
2023/02/14 08:38:46;;;;;;;17.40;9.80;;;5.60;99.90;;;;;;5052955;28;20162;-77
2023/02/14 08:41:12;;;;;;;19.00;9.70;;;5.70;99.90;;;;;;5052969;28;20037;-75
2023/02/14 08:43:38;;;;;;;19.63;10.07;;;5.80;99.90;;;;;;5052795;28;20067;-75
2023/02/14 08:46:04;;;;;;;19.98;9.80;;;5.80;99.90;;;;;;5053430;28;20167;-75
2023/02/14 08:48:29;;;;;;;19.70;10.43;;;6.00;99.90;;;;;;5052909;28;20252;-75
2023/02/14 08:50:55;;;;;;;19.23;10.13;;;6.10;99.90;;;;;;5052661;28;20499;-75
2023/02/14 08:53:21;;;;;;;20.30;10.25;;;6.40;99.90;;;;;;5053094;28;20049;-76
2023/02/14 08:55:47;;;;;;;21.60;10.50;;;6.90;99.90;;;;;;5052433;28;20025;-75
2023/02/14 08:58:13;;;;;;;22.00;11.23;;;7.50;99.90;;;;;;5053040;28;20075;-76
2023/02/14 09:00:39;;;;;;;19.80;10.05;;;8.10;99.90;;;;;;5051791;28;20029;-75
2023/02/14 09:03:05;;;;;;;19.23;10.45;;;8.60;99.90;;;;;;5052689;28;20471;-74
2023/02/14 09:05:32;;;;;;;16.10;8.60;;;9.00;99.90;;;;;;5052530;28;20044;-77
2023/02/14 09:07:58;;;;;;;18.80;8.68;;;9.50;99.90;;;;;;5052547;28;20040;-75
2023/02/14 09:10:24;;;;;;;21.75;8.90;;;9.90;99.90;;;;;;5052765;28;20029;-73
2023/02/14 09:12:50;;;;;;;14.32;8.73;;;10.10;99.90;;;;;;5051274;28;20029;-74
2023/02/14 09:15:16;;;;;;;15.02;8.73;;;10.30;99.90;;;;;;5051092;28;20474;-74
2023/02/14 09:17:41;;;;;;;17.02;8.65;;;10.30;99.90;;;;;;5052186;28;20217;-76
2023/02/14 09:20:09;;;;;;;16.08;8.18;;;10.30;99.50;;;;;;5052134;28;20466;-78
2023/02/14 09:22:35;;;;;;;16.92;8.82;;;10.40;99.30;;;;;;5052528;28;20060;-74
2023/02/14 09:25:01;;;;;;;18.75;9.50;;;10.50;99.30;;;;;;5052475;28;20497;-74
2023/02/14 09:27:27;;;;;;;22.48;12.85;;;10.50;99.30;;;;;;5050781;28;20110;-74
2023/02/14 09:29:52;;;;;;;14.65;7.97;;;10.60;99.40;;;;;;5052012;28;20098;-73
2023/02/14 09:32:18;;;;;;;15.48;8.98;;;10.60;98.90;;;;;;5051017;28;20116;-74
2023/02/14 09:34:44;;;;;;;15.32;8.68;;;10.70;99.00;;;;;;5051730;28;20017;-74
2023/02/14 09:39:55;;;;;;;15.75;9.15;;;10.70;98.30;;;;;;5051753;28;20086;-74
2023/02/14 09:42:43;;;;;;;16.85;8.57;;;10.90;98.60;;;;;;5050868;28;20500;-75
2023/02/14 09:45:15;;;;;;;18.98;10.02;;;11.00;98.40;;;;;;5051434;28;20112;-75
2023/02/14 09:47:51;;;;;;;15.07;8.95;;;11.00;98.10;;;;;;5051691;28;20055;-77
2023/02/14 09:50:35;;;;;;;17.30;9.38;;;11.10;98.60;;;;;;5051626;28;20463;-75
2023/02/14 09:53:07;;;;;;;15.88;8.80;;;11.00;98.20;;;;;;5050812;28;20056;-75
2023/02/14 09:55:53;;;;;;;16.92;9.43;;;11.10;98.50;;;;;;5052046;28;20076;-76
2023/02/14 09:58:32;;;;;;;15.73;8.98;;;11.10;98.10;;;;;;5051796;28;20029;-76
2023/02/14 10:01:17;;;;;;;14.80;8.68;;;11.20;98.70;;;;;;5050465;28;20029;-76
2023/02/14 10:03:51;;;;;;;21.20;9.77;;;11.20;98.20;;;;;;5050361;28;20498;-76
2023/02/14 10:06:40;;;;;;;20.17;10.13;;;11.20;98.30;;;;;;5051296;28;20029;-76
2023/02/14 10:09:24;;;;;;;14.90;8.90;;;11.50;98.50;;;;;;5051244;28;20045;-76
2023/02/14 10:11:49;;;;;;;17.65;9.95;;;12.20;98.20;;;;;;5051326;28;20043;-77
2023/02/14 10:14:39;;;;;;;17.25;8.77;;;13.30;96.70;;;;;;5050006;28;20071;-75
2023/02/14 10:17:20;;;;;;;18.63;9.95;;;15.00;95.60;;;;;;5051127;28;20037;-74
2023/02/14 10:19:52;;;;;;;22.00;9.35;;;16.20;95.20;;;;;;5050089;28;20060;-75
2023/02/14 10:22:21;;;;;;;14.15;8.95;;;17.00;91.70;;;;;;5051566;28;20040;-74
2023/02/14 10:25:05;;;;;;;16.65;9.10;;;18.10;92.00;;;;;;5051102;28;20030;-78
2023/02/14 10:27:42;;;;;;;13.27;7.90;;;18.00;90.20;;;;;;5051051;28;20128;-75
2023/02/14 10:30:13;;;;;;;15.40;8.83;;;18.50;89.30;;;;;;5050284;28;20025;-76
2023/02/14 10:33:07;;;;;;;13.90;8.63;;;19.70;90.00;;;;;;5051140;28;20059;-74
2023/02/14 10:35:58;;;;;;;15.70;9.10;;;20.40;88.00;;;;;;5046561;28;20132;-76
2023/02/14 10:38:57;;;;;;;14.85;9.05;;;20.70;85.00;;;;;;5050932;28;20040;-75
2023/02/14 10:41:44;;;;;;;17.67;8.82;;;20.90;80.50;;;;;;5050849;28;20029;-76
2023/02/14 10:44:11;;;;;;;14.50;8.93;;;21.10;78.20;;;;;;5050882;28;20044;-77
2023/02/14 10:46:57;;;;;;;28.92;16.02;;;22.10;81.50;;;;;;5049620;28;20029;-75
2023/02/14 10:49:53;;;;;;;19.17;12.48;;;22.50;74.30;;;;;;5051452;28;20088;-78
2023/02/14 10:52:32;;;;;;;12.20;8.30;;;22.30;72.80;;;;;;5051008;28;20141;-79
2023/02/14 10:55:04;;;;;;;15.43;7.93;;;22.90;75.30;;;;;;5049506;28;20110;-79
2023/02/14 10:57:39;;;;;;;12.75;7.88;;;23.70;73.10;;;;;;5050087;28;20029;-75
2023/02/14 11:00:29;;;;;;;15.10;8.82;;;23.20;69.90;;;;;;5049662;28;20040;-79
2023/02/14 11:03:00;;;;;;;13.82;8.07;;;23.70;69.60;;;;;;5049551;28;20041;-76
2023/02/14 11:05:40;;;;;;;11.52;7.80;;;23.90;67.00;;;;;;5050718;28;20135;-79
2023/02/14 11:08:24;;;;;;;11.98;7.65;;;23.90;67.70;;;;;;5049489;28;20121;-80
2023/02/14 11:10:50;;;;;;;14.73;8.10;;;23.60;66.60;;;;;;5049507;28;20029;-73
2023/02/14 11:13:33;;;;;;;12.90;7.22;;;23.90;66.30;;;;;;5051045;28;20036;-80
2023/02/14 11:16:01;;;;;;;12.13;7.00;;;24.10;63.90;;;;;;5050544;28;20061;-80
2023/02/14 11:18:31;;;;;;;13.98;8.30;;;24.40;63.30;;;;;;5050599;28;20059;-77
2023/02/14 11:21:02;;;;;;;12.82;7.28;;;23.90;62.60;;;;;;5049685;28;20041;-75
2023/02/14 11:23:33;;;;;;;12.45;8.52;;;24.30;65.70;;;;;;5050496;28;20120;-76
2023/02/14 11:26:00;;;;;;;11.00;7.53;;;24.00;63.10;;;;;;5050606;28;20107;-75
2023/02/14 11:28:27;;;;;;;10.70;7.30;;;24.10;63.20;;;;;;5050803;28;20048;-76
2023/02/14 11:30:53;;;;;;;9.32;6.63;;;24.40;63.80;;;;;;5050432;28;20045;-75
2023/02/14 11:33:39;;;;;;;11.70;7.22;;;24.30;62.00;;;;;;5049310;28;20414;-77
2023/02/14 11:36:11;;;;;;;10.73;7.18;;;24.80;62.00;;;;;;5050251;28;20030;-76
2023/02/14 11:38:38;;;;;;;9.10;6.25;;;24.90;61.00;;;;;;5050491;28;20048;-76
2023/02/14 11:41:12;;;;;;;13.65;7.65;;;24.40;58.80;;;;;;5050459;28;20104;-77
2023/02/14 11:43:40;;;;;;;11.68;7.13;;;24.40;61.50;;;;;;5050159;28;20109;-77
2023/02/14 11:46:22;;;;;;;10.52;6.78;;;24.90;61.10;;;;;;5050615;28;20025;-74
2023/02/14 11:49:02;;;;;;;9.80;6.40;;;24.90;60.50;;;;;;5050297;28;20037;-75
2023/02/14 11:51:44;;;;;;;10.85;6.68;;;24.20;58.50;;;;;;5050378;28;20029;-75
2023/02/14 11:54:24;;;;;;;10.02;7.00;;;24.30;60.00;;;;;;5050255;28;20029;-75
2023/02/14 11:57:01;;;;;;;10.90;6.53;;;23.90;58.60;;;;;;5050273;28;20037;-75
2023/02/14 11:59:42;;;;;;;10.13;6.57;;;23.50;59.40;;;;;;5049425;28;20414;-73
2023/02/14 12:02:25;;;;;;;9.90;6.68;;;23.00;60.00;;;;;;5050261;28;20053;-74
2023/02/14 12:04:55;;;;;;;10.20;6.80;;;22.90;61.40;;;;;;5050139;28;20025;-74
2023/02/14 12:07:26;;;;;;;8.20;5.82;;;22.70;61.30;;;;;;5051352;28;20375;-73
2023/02/14 12:10:27;;;;;;;13.45;7.55;;;22.10;61.30;;;;;;5053562;28;20049;-73
2023/02/14 12:12:57;;;;;;;11.50;6.25;;;21.40;62.60;;;;;;5015206;28;20029;-72
2023/02/14 12:15:37;;;;;;;8.70;6.35;;;21.10;63.80;;;;;;5049723;28;20036;-74
2023/02/14 12:18:26;;;;;;;12.23;7.07;;;20.70;64.50;;;;;;5053590;28;20113;-74
2023/02/14 12:20:54;;;;;;;10.57;6.38;;;20.40;65.50;;;;;;5050206;28;20030;-73
2023/02/14 12:23:49;;;;;;;9.02;5.60;;;20.20;65.20;;;;;;5053482;28;20072;-72
2023/02/14 12:26:45;;;;;;;9.45;6.28;;;20.00;66.20;;;;;;5052534;28;20402;-71
2023/02/14 12:29:26;;;;;;;8.35;6.28;;;19.80;66.40;;;;;;5053226;28;20040;-79
2023/02/14 12:31:57;;;;;;;9.93;6.10;;;19.70;67.30;;;;;;5052702;28;20120;-78
2023/02/14 12:34:23;;;;;;;12.40;6.25;;;19.50;67.30;;;;;;5053916;28;20017;-78
2023/02/14 12:37:12;;;;;;;14.38;5.50;;;19.00;68.10;;;;;;5053215;28;20094;-79
2023/02/14 12:40:11;;;;;;;11.18;5.28;;;18.80;68.30;;;;;;5053238;28;20033;-79
2023/02/14 12:42:52;;;;;;;10.40;5.90;;;18.70;68.20;;;;;;5053007;28;20528;-81
2023/02/14 12:45:47;;;;;;;9.60;6.03;;;18.40;68.90;;;;;;5052984;28;20443;-74
2023/02/14 12:48:36;;;;;;;10.05;5.88;;;18.30;70.00;;;;;;5052962;28;20033;-74
2023/02/14 12:51:05;;;;;;;8.88;5.20;;;18.10;70.10;;;;;;5042349;28;20090;-74
2023/02/14 12:54:01;;;;;;;7.90;5.03;;;18.10;70.20;;;;;;5052893;28;20219;-72
2023/02/14 12:56:50;;;;;;;7.87;4.30;;;18.00;70.80;;;;;;5052576;28;20037;-74
2023/02/14 12:59:53;;;;;;;8.68;5.05;;;17.80;70.50;;;;;;5053295;28;20041;-73
2023/02/14 13:02:46;;;;;;;9.07;4.68;;;17.60;71.10;;;;;;5052749;28;20029;-72
2023/02/14 13:05:25;;;;;;;6.22;4.22;;;17.50;71.50;;;;;;5052531;28;20142;-73
2023/02/14 13:08:00;;;;;;;6.45;3.85;;;17.40;71.80;;;;;;5052532;28;20025;-75
2023/02/14 13:10:43;;;;;;;7.30;4.05;;;17.20;72.20;;;;;;5052987;28;20323;-74
2023/02/14 13:13:24;;;;;;;6.60;3.75;;;17.10;72.20;;;;;;5052682;28;20104;-74
2023/02/14 13:16:18;;;;;;;6.57;3.83;;;17.10;72.90;;;;;;5052640;28;20434;-73
2023/02/14 13:19:25;;;;;;;6.65;4.28;;;17.00;73.20;;;;;;5050809;28;20036;-74
2023/02/14 13:21:52;;;;;;;7.15;3.80;;;16.90;73.70;;;;;;5013563;28;20030;-73